Terminal Aerodrome Forecast
Issued by NWS

Home | Current Version | Previous Version | Text Only | Print | Product List | Glossary On
Versions: 1 2 3 4 5 6 7 8 9 10 11 12 13 14 15 16 17 18 19 20
000
FTUS46 KOTX 282324
TAFCOE
TAF
KCOE 282324Z 2900/2924 19009KT P6SM -RA BKN025 OVC040
     FM290200 18007KT P6SM -RA BKN020 OVC035
     FM290800 15005KT P6SM -RA BKN015 OVC030
     FM291100 13005KT 5SM -RA BR OVC015
     FM291600 16007KT P6SM -RA BKN010 OVC030=

USA.gov is the U.S. government's official web portal to all federal, state and local government web resources and services.